Time;durP1;ratioP1;P1;durP2;ratioP2;P2;SDS_P1;SDS_P2;PMS_P1;PMS_P2;Temp;Humidity;BMP_temperature;BMP_pressure;BME280_temperature;BME280_humidity;BME280_pressure;Samples;Min_cycle;Max_cycle;Signal;HPM_P1;HPM_P2
2022/12/11 00:02:03;;;;;;;;;36.50;30.75;;;;;1.60;69.02;100879.00;5077035;28;46168;-62
2022/12/11 00:04:29;;;;;;;;;46.25;34.25;;;;;1.58;68.89;100862.56;5074249;28;45596;-64
2022/12/11 00:06:55;;;;;;;;;41.75;30.00;;;;;1.76;68.50;100864.13;5071526;28;45385;-62
2022/12/11 00:09:21;;;;;;;;;28.50;27.00;;;;;1.70;68.68;100851.84;5090397;27;45421;-62
2022/12/11 00:11:48;;;;;;;;;39.75;29.25;;;;;1.79;68.82;100866.81;5058358;28;46791;-63
2022/12/11 00:14:14;;;;;;;;;29.50;25.50;;;;;1.77;68.71;100861.59;5076714;28;45520;-63
2022/12/11 00:16:41;;;;;;;;;36.75;30.75;;;;;1.69;69.70;100861.28;5059892;28;45456;-62
2022/12/11 00:19:07;;;;;;;;;45.25;35.50;;;;;1.55;69.14;100841.78;5076874;28;45496;-61
2022/12/11 00:21:33;;;;;;;;;49.75;35.50;;;;;1.41;69.84;100850.69;5073938;28;46550;-65
2022/12/11 00:23:59;;;;;;;;;46.25;34.00;;;;;1.18;70.53;100831.66;5074318;28;45264;-62
2022/12/11 00:26:24;;;;;;;;;43.50;33.75;;;;;1.15;70.71;100836.72;5055883;28;45399;-63
2022/12/11 00:28:55;;;;;;;;;36.25;29.75;;;;;1.28;70.98;100841.53;5074673;27;45373;-63
2022/12/11 00:31:21;;;;;;;;;37.50;31.75;;;;;1.36;70.15;100837.59;5076990;28;45411;-62
2022/12/11 00:33:48;;;;;;;;;36.75;28.50;;;;;1.33;69.45;100840.06;5052497;28;45437;-63
2022/12/11 00:36:17;;;;;;;;;40.50;28.75;;;;;1.27;70.69;100832.91;5072756;28;45256;-63
2022/12/11 00:38:43;;;;;;;;;30.25;21.00;;;;;1.36;70.10;100837.59;5058405;28;45879;-62
2022/12/11 00:41:09;;;;;;;;;40.25;31.00;;;;;1.39;69.99;100831.66;5077692;27;45465;-61
2022/12/11 00:43:35;;;;;;;;;32.00;27.75;;;;;1.45;69.71;100835.38;5077645;27;46114;-62
2022/12/11 00:46:01;;;;;;;;;26.75;24.50;;;;;1.58;69.70;100829.00;5078074;28;45504;-65
2022/12/11 00:48:27;;;;;;;;;39.50;27.00;;;;;1.75;69.78;100831.38;5078399;28;45386;-62
2022/12/11 00:50:52;;;;;;;;;26.75;22.75;;;;;1.79;68.99;100816.06;5075610;28;45580;-62
2022/12/11 00:53:18;;;;;;;;;32.25;24.00;;;;;1.72;68.58;100792.53;5073672;28;46136;-61
2022/12/11 00:55:44;;;;;;;;;30.25;24.25;;;;;1.90;68.74;100814.78;5073563;28;45502;-62
2022/12/11 00:58:11;;;;;;;;;35.25;27.50;;;;;2.00;68.60;100825.47;5073353;28;45505;-62
2022/12/11 01:00:37;;;;;;;;;37.50;29.25;;;;;1.69;68.42;100783.84;5072905;28;45857;-63
2022/12/11 01:03:04;;;;;;;;;39.25;27.00;;;;;1.60;68.56;100800.66;5072691;28;45390;-61
2022/12/11 01:05:29;;;;;;;;;42.00;30.25;;;;;1.51;68.10;100819.25;5073298;27;45864;-61
2022/12/11 01:07:55;;;;;;;;;29.25;26.25;;;;;1.41;69.14;100822.28;5073596;28;45372;-61
2022/12/11 01:10:23;;;;;;;;;32.50;26.25;;;;;1.39;69.35;100816.19;5073984;27;45475;-61
2022/12/11 01:13:00;;;;;;;;;40.50;22.50;;;;;1.55;69.28;100826.31;5073717;28;45589;-61
2022/12/11 01:15:29;;;;;;;;;29.50;22.00;;;;;1.68;68.73;100817.31;5055178;28;45412;-64
2022/12/11 01:17:55;;;;;;;;;40.50;31.25;;;;;1.64;68.93;100811.19;5067308;27;45565;-62
2022/12/11 01:20:22;;;;;;;;;38.00;29.50;;;;;1.55;69.30;100804.78;5057148;28;46901;-62
2022/12/11 01:22:52;;;;;;;;;42.00;27.75;;;;;1.49;69.80;100818.31;5076951;28;45705;-62
2022/12/11 01:25:18;;;;;;;;;32.75;27.50;;;;;1.33;70.22;100810.75;5073775;28;45383;-62
2022/12/11 01:27:43;;;;;;;;;31.50;28.00;;;;;1.13;69.47;100789.31;5074354;28;45410;-64
2022/12/11 01:30:10;;;;;;;;;13.25;13.25;;;;;1.11;70.04;100809.00;5075454;28;45797;-62
2022/12/11 01:32:36;;;;;;;;;28.25;21.50;;;;;1.11;69.81;100820.19;5054841;28;45466;-62
2022/12/11 01:35:06;;;;;;;;;18.75;18.00;;;;;1.23;69.36;100820.75;5055246;28;45424;-62
2022/12/11 01:37:33;;;;;;;;;28.00;21.25;;;;;1.26;70.09;100825.13;5073491;27;45521;-62
2022/12/11 01:40:00;;;;;;;;;29.25;22.50;;;;;1.23;69.25;100815.56;5076419;27;47786;-64
2022/12/11 01:42:27;;;;;;;;;37.00;25.00;;;;;1.12;70.63;100808.22;5072504;28;45798;-64
2022/12/11 01:45:14;;;;;;;;;35.75;27.50;;;;;1.11;70.58;100822.78;5072857;28;45501;-61
2022/12/11 01:47:40;;;;;;;;;24.75;22.00;;;;;1.09;70.93;100818.38;5072825;28;45528;-62
2022/12/11 01:50:06;;;;;;;;;27.25;23.00;;;;;1.13;70.04;100830.59;5075653;28;45436;-62
2022/12/11 01:52:32;;;;;;;;;35.50;24.25;;;;;1.09;70.85;100823.53;5072715;28;45842;-61
2022/12/11 01:54:58;;;;;;;;;29.25;24.00;;;;;0.96;71.00;100830.78;5072691;28;45374;-61
2022/12/11 01:57:24;;;;;;;;;26.25;24.25;;;;;0.88;70.28;100832.16;5073124;28;46047;-61
2022/12/11 01:59:49;;;;;;;;;22.75;22.75;;;;;0.79;71.21;100839.50;5054455;28;47187;-62
2022/12/11 02:02:23;;;;;;;;;24.25;18.50;;;;;0.74;71.27;100844.44;5050889;28;45765;-62
2022/12/11 02:04:49;;;;;;;;;27.00;21.00;;;;;0.78;72.01;100838.63;5075550;28;45460;-67
2022/12/11 02:07:15;;;;;;;;;26.50;18.25;;;;;0.89;70.66;100825.28;5047768;28;45292;-62
2022/12/11 02:09:43;;;;;;;;;27.75;21.00;;;;;0.92;70.61;100828.88;5054146;28;46328;-63
2022/12/11 02:12:35;;;;;;;;;23.25;18.50;;;;;0.78;71.69;100824.81;5053852;28;45558;-63
2022/12/11 02:15:16;;;;;;;;;27.75;20.00;;;;;0.72;71.52;100817.72;5055123;28;45811;-64
2022/12/11 02:17:53;;;;;;;;;26.00;24.75;;;;;0.59;72.61;100820.56;5058500;28;45577;-63
2022/12/11 02:20:30;;;;;;;;;30.75;24.00;;;;;0.49;72.52;100808.97;5050587;28;46820;-65
2022/12/11 02:23:14;;;;;;;;;27.25;21.75;;;;;0.62;72.10;100811.28;5051862;28;45702;-63
2022/12/11 02:26:24;;;;;;;;;36.75;23.50;;;;;0.58;72.11;100814.53;5070215;28;45497;-65
2022/12/11 02:28:56;;;;;;;;;33.50;20.75;;;;;0.49;72.41;100802.94;5030383;28;45547;-68
2022/12/11 02:31:25;;;;;;;;;28.50;19.25;;;;;0.47;72.85;100808.03;5055283;28;46464;-64
2022/12/11 02:33:56;;;;;;;;;25.00;19.25;;;;;0.44;73.13;100802.75;5067113;28;45430;-67
2022/12/11 02:36:26;;;;;;;;;21.75;17.50;;;;;0.44;73.21;100807.03;5060019;28;45458;-63
2022/12/11 02:38:55;;;;;;;;;25.50;18.75;;;;;0.25;73.69;100789.88;5059882;28;45446;-61
2022/12/11 02:41:26;;;;;;;;;26.25;21.25;;;;;0.34;72.67;100798.88;5058752;28;45676;-62
2022/12/11 02:43:55;;;;;;;;;28.00;20.25;;;;;0.39;72.69;100801.66;5055492;28;45740;-61
2022/12/11 02:46:21;;;;;;;;;24.00;20.50;;;;;0.31;72.87;100801.34;5050560;27;45620;-62
2022/12/11 02:48:50;;;;;;;;;25.00;19.50;;;;;0.37;73.27;100788.72;5045103;28;45472;-62
2022/12/11 02:51:20;;;;;;;;;19.25;14.50;;;;;0.39;72.45;100776.78;5059387;28;45524;-64
2022/12/11 02:53:48;;;;;;;;;17.75;16.00;;;;;0.65;72.06;100792.50;5059542;28;45641;-62
2022/12/11 02:56:28;;;;;;;;;22.00;17.50;;;;;0.72;71.16;100784.19;5059535;28;45467;-65
2022/12/11 02:58:59;;;;;;;;;20.00;16.25;;;;;0.77;71.46;100790.44;5055047;28;45336;-62
2022/12/11 03:01:26;;;;;;;;;24.50;18.50;;;;;0.67;70.95;100777.97;5055007;28;45624;-66
2022/12/11 03:03:53;;;;;;;;;21.00;19.00;;;;;0.67;70.87;100780.56;5048028;28;45399;-62
2022/12/11 03:06:23;;;;;;;;;28.50;18.75;;;;;0.61;70.98;100801.78;5055528;28;45620;-64
2022/12/11 03:08:50;;;;;;;;;20.50;15.75;;;;;0.61;71.66;100793.16;5055416;28;45407;-62
2022/12/11 03:11:16;;;;;;;;;23.00;21.75;;;;;0.53;72.04;100786.81;5054794;28;46716;-62
2022/12/11 03:13:42;;;;;;;;;32.00;21.75;;;;;0.37;72.19;100780.09;5054956;28;45391;-61
2022/12/11 03:16:38;;;;;;;;;26.00;20.50;;;;;0.40;72.26;100786.28;5056006;28;45588;-63
2022/12/11 03:19:45;;;;;;;;;21.75;17.25;;;;;0.46;72.16;100784.78;5036569;28;45651;-62
2022/12/11 03:22:25;;;;;;;;;20.50;18.00;;;;;0.41;71.57;100782.88;4999494;28;45514;-62
2022/12/11 03:24:59;;;;;;;;;17.00;14.00;;;;;0.13;72.05;100737.00;5065573;27;45478;-62
2022/12/11 03:27:43;;;;;;;;;26.50;18.75;;;;;0.56;72.00;100784.38;5075586;28;45516;-63
2022/12/11 03:30:13;;;;;;;;;21.50;15.25;;;;;0.38;71.24;100751.84;5075439;28;45588;-62
2022/12/11 03:32:54;;;;;;;;;13.50;12.50;;;;;0.68;71.29;100782.31;5072932;28;46286;-61
2022/12/11 03:35:31;;;;;;;;;25.75;19.50;;;;;0.63;70.63;100764.06;5075792;28;45504;-61
2022/12/11 03:38:04;;;;;;;;;22.25;13.50;;;;;0.73;70.61;100767.91;5060261;28;45401;-63
2022/12/11 03:40:34;;;;;;;;;22.50;19.75;;;;;0.79;70.73;100768.19;5072467;28;45692;-63
2022/12/11 03:43:01;;;;;;;;;20.75;19.50;;;;;0.84;71.02;100776.09;5052889;28;46965;-63
2022/12/11 03:45:29;;;;;;;;;21.25;18.75;;;;;0.68;71.27;100765.97;5071314;28;45600;-63
2022/12/11 03:47:57;;;;;;;;;27.25;21.00;;;;;0.51;71.01;100766.13;5076291;27;45405;-62
2022/12/11 03:50:25;;;;;;;;;24.25;18.00;;;;;0.49;71.92;100759.16;5071897;27;45442;-61
2022/12/11 03:52:52;;;;;;;;;19.00;16.75;;;;;0.60;70.99;100768.22;5067467;27;45546;-63
2022/12/11 03:55:22;;;;;;;;;19.25;16.00;;;;;0.57;70.85;100771.56;5060800;28;45508;-61
2022/12/11 03:57:47;;;;;;;;;15.00;12.25;;;;;0.66;70.54;100770.16;5071372;28;45863;-63
2022/12/11 04:00:18;;;;;;;;;20.00;13.75;;;;;0.84;70.62;100773.53;5068165;28;45703;-61
2022/12/11 04:02:44;;;;;;;;;25.75;20.25;;;;;0.86;70.38;100771.03;5058347;28;45669;-63
2022/12/11 04:05:10;;;;;;;;;19.50;19.00;;;;;0.81;70.38;100773.41;5054913;28;45769;-62
2022/12/11 04:07:36;;;;;;;;;21.25;17.75;;;;;0.67;70.48;100772.81;5055010;28;45363;-62
2022/12/11 04:10:03;;;;;;;;;19.75;15.50;;;;;0.56;71.01;100768.91;5079011;27;45531;-62
2022/12/11 04:12:29;;;;;;;;;17.25;17.00;;;;;0.52;70.17;100770.47;5078653;28;46517;-63
2022/12/11 04:15:00;;;;;;;;;23.75;19.00;;;;;0.49;70.74;100766.88;5075819;28;45310;-62
2022/12/11 04:25:39;;;;;;;;;13.50;13.25;;;;;-0.09;72.38;100755.78;5076400;28;45467;-61
2022/12/11 04:28:05;;;;;;;;;13.50;11.00;;;;;-0.10;72.75;100751.41;5078431;28;45335;-63
2022/12/11 04:30:30;;;;;;;;;17.00;16.00;;;;;0.04;72.84;100764.91;5052831;28;45583;-63
2022/12/11 04:32:56;;;;;;;;;13.50;13.00;;;;;-0.08;72.26;100736.03;5068012;28;46423;-62
2022/12/11 04:35:22;;;;;;;;;18.75;14.25;;;;;0.18;72.61;100765.53;5052209;28;45311;-62
2022/12/11 04:37:48;;;;;;;;;24.25;19.25;;;;;0.24;72.45;100754.59;5054610;28;45544;-62
2022/12/11 04:40:16;;;;;;;;;20.25;18.25;;;;;0.14;72.90;100749.06;5043228;28;45406;-61
2022/12/11 04:42:42;;;;;;;;;22.50;16.25;;;;;0.12;72.31;100734.34;5072773;28;46533;-64
2022/12/11 04:45:09;;;;;;;;;16.75;15.00;;;;;0.15;72.08;100755.09;5073385;28;45552;-62
2022/12/11 04:47:36;;;;;;;;;19.25;16.50;;;;;0.07;72.97;100751.28;5073777;27;45396;-62
2022/12/11 04:50:04;;;;;;;;;18.00;14.50;;;;;0.04;72.69;100749.47;5073917;28;45512;-65
2022/12/11 04:52:29;;;;;;;;;21.00;17.00;;;;;-0.03;72.71;100725.13;5054851;28;46665;-62
2022/12/11 04:54:55;;;;;;;;;16.75;15.25;;;;;0.03;72.86;100740.00;5073823;28;45917;-61
2022/12/11 04:57:20;;;;;;;;;22.50;20.00;;;;;-0.20;73.49;100741.53;5073547;27;45488;-62
2022/12/11 04:59:46;;;;;;;;;22.25;17.75;;;;;-0.33;74.01;100726.31;5071211;28;45509;-63
2022/12/11 05:02:15;;;;;;;;;22.75;17.00;;;;;-0.19;73.85;100733.00;5059420;28;46134;-63
2022/12/11 05:04:41;;;;;;;;;22.50;15.00;;;;;-0.11;74.35;100730.78;5055769;28;45701;-63
2022/12/11 05:07:08;;;;;;;;;17.00;14.75;;;;;0.00;73.47;100734.72;5053539;28;45383;-61
2022/12/11 05:09:34;;;;;;;;;17.50;14.00;;;;;0.03;73.30;100737.41;5053120;28;45509;-62
2022/12/11 05:12:00;;;;;;;;;20.00;16.50;;;;;0.11;73.51;100725.75;5052508;28;45523;-61
2022/12/11 05:14:26;;;;;;;;;21.50;18.50;;;;;0.18;73.58;100720.03;5037247;28;45394;-62
2022/12/11 05:16:52;;;;;;;;;22.00;16.00;;;;;0.07;73.09;100729.03;5056828;28;45847;-62
2022/12/11 05:19:18;;;;;;;;;20.50;17.00;;;;;0.06;73.33;100729.81;5050939;28;45969;-60
2022/12/11 05:21:43;;;;;;;;;23.50;17.25;;;;;0.00;73.38;100724.41;5046042;28;45426;-61
2022/12/11 05:24:09;;;;;;;;;20.50;16.75;;;;;-0.03;73.00;100706.22;5054115;28;45431;-61
2022/12/11 05:26:35;;;;;;;;;25.25;16.25;;;;;0.10;73.41;100721.41;5053950;28;45640;-60
2022/12/11 05:29:00;;;;;;;;;21.50;16.25;;;;;0.08;73.40;100712.75;5053735;28;45302;-64
2022/12/11 05:31:26;;;;;;;;;19.25;16.50;;;;;0.12;72.75;100732.66;5058390;28;45440;-63
2022/12/11 05:33:53;;;;;;;;;24.25;15.00;;;;;0.21;72.69;100724.44;5052750;28;45512;-61
2022/12/11 05:36:22;;;;;;;;;16.75;13.00;;;;;0.25;71.96;100722.91;5060547;28;45484;-61
2022/12/11 05:38:48;;;;;;;;;15.00;14.00;;;;;0.31;72.64;100728.28;5053181;28;45505;-60
2022/12/11 05:41:16;;;;;;;;;21.50;17.50;;;;;0.29;71.43;100730.81;5046383;28;46424;-61
2022/12/11 05:43:42;;;;;;;;;21.50;16.75;;;;;0.26;72.38;100735.84;5052543;28;45646;-61
2022/12/11 05:46:17;;;;;;;;;21.25;18.75;;;;;0.21;71.38;100727.03;5068116;28;45291;-60
2022/12/11 05:48:45;;;;;;;;;25.75;21.25;;;;;0.03;72.00;100706.50;5060393;28;45847;-62
2022/12/11 05:51:12;;;;;;;;;23.50;19.25;;;;;0.02;72.42;100733.06;5052942;28;46402;-64
2022/12/11 05:53:40;;;;;;;;;24.50;17.50;;;;;0.02;72.34;100717.59;5053241;28;45619;-61
2022/12/11 05:56:09;;;;;;;;;20.75;16.25;;;;;0.05;72.09;100728.06;5057232;28;45384;-62
2022/12/11 05:58:35;;;;;;;;;23.75;17.00;;;;;0.04;72.27;100726.28;5055347;28;45533;-64
2022/12/11 06:01:01;;;;;;;;;16.75;15.50;;;;;0.20;72.09;100731.28;5061959;28;45479;-65
2022/12/11 06:03:27;;;;;;;;;22.25;15.50;;;;;0.32;71.75;100723.22;5070924;28;45796;-66
2022/12/11 06:05:53;;;;;;;;;19.50;13.00;;;;;0.42;71.49;100720.22;5068660;27;45401;-65
2022/12/11 06:08:19;;;;;;;;;22.25;17.00;;;;;0.52;70.97;100720.59;5065043;27;45394;-62
2022/12/11 06:10:46;;;;;;;;;23.50;21.75;;;;;0.44;70.64;100707.41;5071397;28;46134;-61
2022/12/11 06:13:12;;;;;;;;;37.00;24.75;;;;;0.30;71.38;100716.25;5074333;28;45440;-62
2022/12/11 06:15:38;;;;;;;;;43.25;24.00;;;;;0.20;71.70;100700.38;5077882;28;45433;-62
2022/12/11 06:18:03;;;;;;;;;36.75;25.00;;;;;0.22;71.01;100704.75;5054592;28;45607;-61
2022/12/11 06:20:33;;;;;;;;;33.75;26.00;;;;;0.13;72.53;100710.38;5073613;28;45467;-62
2022/12/11 06:22:59;;;;;;;;;33.00;25.25;;;;;-0.01;72.26;100713.19;5058996;27;45466;-61
2022/12/11 06:25:25;;;;;;;;;36.00;29.50;;;;;-0.13;72.87;100704.06;5075590;27;45466;-61
2022/12/11 06:27:50;;;;;;;;;28.50;24.00;;;;;-0.09;72.75;100704.28;5068828;28;45648;-62
2022/12/11 06:30:16;;;;;;;;;35.50;29.75;;;;;-0.11;72.32;100708.47;5061500;28;45807;-60
2022/12/11 06:32:42;;;;;;;;;33.50;27.50;;;;;-0.08;72.27;100711.16;5046702;28;45382;-65
2022/12/11 06:35:08;;;;;;;;;40.00;29.25;;;;;-0.20;72.75;100691.75;5042358;28;45421;-62
2022/12/11 06:37:35;;;;;;;;;38.00;25.25;;;;;-0.13;72.20;100692.06;5059382;28;45480;-60
2022/12/11 06:40:05;;;;;;;;;40.50;26.50;;;;;-0.07;71.96;100700.09;5065074;27;46058;-62
2022/12/11 06:42:31;;;;;;;;;44.67;32.00;;;;;-0.38;72.97;100702.97;5073230;28;45377;-61
2022/12/11 06:44:58;;;;;;;;;41.00;32.33;;;;;-0.35;73.91;100685.09;5053932;28;46237;-61
2022/12/11 06:47:26;;;;;;;;;39.00;30.33;;;;;-0.25;73.00;100692.41;5046795;28;45509;-60
2022/12/11 06:49:52;;;;;;;;;39.00;24.00;;;;;-0.18;73.37;100692.69;5055504;28;45560;-62
2022/12/11 06:52:19;;;;;;;;;30.00;28.00;;;;;-0.09;73.17;100691.41;5055664;28;45540;-60
2022/12/11 06:54:44;;;;;;;;;45.33;34.33;;;;;-0.07;72.25;100682.06;5078544;27;45483;-63
2022/12/11 06:57:12;;;;;;;;;44.33;32.33;;;;;0.01;71.94;100699.53;5078470;28;45311;-61
2022/12/11 06:59:38;;;;;;;;;49.00;37.67;;;;;-0.08;72.12;100693.16;5076581;27;45562;-60
2022/12/11 07:02:04;;;;;;;;;55.67;40.67;;;;;-0.14;72.44;100695.47;5075510;28;45319;-61
2022/12/11 07:04:30;;;;;;;;;58.00;38.67;;;;;-0.19;72.20;100678.94;5064063;28;46043;-65
2022/12/11 07:06:56;;;;;;;;;41.33;35.00;;;;;-0.09;72.96;100690.53;5069962;28;45541;-61
2022/12/11 07:09:25;;;;;;;;;50.33;37.67;;;;;-0.17;72.41;100682.44;5068949;28;46455;-61
2022/12/11 07:11:51;;;;;;;;;47.33;36.67;;;;;-0.15;72.56;100687.66;5063495;28;45521;-61
2022/12/11 07:14:17;;;;;;;;;48.67;31.67;;;;;-0.14;73.24;100685.19;5054710;28;45664;-62
2022/12/11 07:16:42;;;;;;;;;45.67;36.33;;;;;-0.03;72.24;100690.78;5041156;28;45579;-63
2022/12/11 07:19:08;;;;;;;;;51.00;34.33;;;;;0.02;72.50;100701.28;5058694;28;46330;-61
2022/12/11 07:21:34;;;;;;;;;44.67;31.33;;;;;0.03;72.21;100674.75;5041658;28;45560;-61
2022/12/11 07:23:59;;;;;;;;;56.33;39.00;;;;;0.05;71.46;100694.59;5036092;28;45482;-61
2022/12/11 07:26:25;;;;;;;;;53.33;36.67;;;;;0.09;72.16;100695.59;5054756;28;45426;-61
2022/12/11 07:28:51;;;;;;;;;43.33;35.00;;;;;-0.03;71.86;100683.94;5038196;28;46804;-62
2022/12/11 07:31:20;;;;;;;;;52.33;39.00;;;;;-0.16;71.45;100683.34;5054517;28;45490;-62
2022/12/11 07:33:46;;;;;;;;;53.67;41.00;;;;;-0.12;71.80;100703.25;5055061;28;45657;-62
2022/12/11 07:36:14;;;;;;;;;46.00;35.00;;;;;-0.33;71.86;100661.97;5054443;28;45563;-66
2022/12/11 07:38:40;;;;;;;;;61.33;46.00;;;;;-0.15;71.60;100690.25;5037196;28;45634;-60
2022/12/11 07:41:10;;;;;;;;;55.33;38.67;;;;;-0.11;71.48;100715.31;5059303;28;45578;-61
2022/12/11 07:43:36;;;;;;;;;53.33;41.00;;;;;-0.06;71.72;100719.84;5056005;28;45586;-62
2022/12/11 07:46:07;;;;;;;;;50.67;35.00;;;;;0.03;71.92;100713.38;5075307;27;45637;-61
2022/12/11 07:48:37;;;;;;;;;55.33;37.67;;;;;0.03;71.29;100703.06;5078750;28;45498;-61
2022/12/11 07:51:26;;;;;;;;;57.00;39.67;;;;;-0.01;71.38;100713.19;5079261;27;45438;-62
2022/12/11 07:53:55;;;;;;;;;57.00;43.67;;;;;-0.14;72.08;100707.44;5079026;28;45446;-64
2022/12/11 07:56:21;;;;;;;;;55.33;42.00;;;;;-0.24;71.76;100695.84;5060992;28;45546;-63
2022/12/11 07:58:47;;;;;;;;;54.67;42.00;;;;;-0.36;71.30;100685.88;5054952;28;46470;-61
2022/12/11 08:01:22;;;;;;;;;52.33;38.00;;;;;-0.32;71.77;100702.38;5074939;28;45975;-61
2022/12/11 08:03:49;;;;;;;;;57.67;41.00;;;;;-0.44;72.06;100693.25;5076695;28;45487;-65
2022/12/11 08:06:16;;;;;;;;;54.00;42.00;;;;;-0.62;71.89;100687.28;5074644;27;45572;-66
2022/12/11 08:08:42;;;;;;;;;52.33;38.00;;;;;-0.50;71.74;100712.69;5074226;28;45512;-62
2022/12/11 08:11:11;;;;;;;;;56.00;43.00;;;;;-0.77;72.08;100681.44;5055735;27;45575;-62
2022/12/11 08:13:36;;;;;;;;;56.33;41.33;;;;;-0.69;72.73;100714.44;5073661;28;45592;-60
2022/12/11 08:16:04;;;;;;;;;54.00;41.00;;;;;-0.71;72.98;100715.16;5070241;27;45457;-64
2022/12/11 08:18:29;;;;;;;;;53.33;42.33;;;;;-0.92;72.58;100663.59;5053948;28;45560;-62
2022/12/11 08:20:55;;;;;;;;;53.00;38.00;;;;;-0.89;72.55;100680.03;5045817;28;45536;-60
2022/12/11 08:23:20;;;;;;;;;49.00;40.00;;;;;-0.85;73.23;100686.22;5066590;27;46663;-61
2022/12/11 08:25:46;;;;;;;;;58.00;42.33;;;;;-0.70;72.94;100716.91;5058596;28;45441;-65
2022/12/11 08:28:11;;;;;;;;;61.67;41.33;;;;;-0.76;72.77;100719.19;5056733;28;45550;-62
2022/12/11 08:30:39;;;;;;;;;66.67;44.00;;;;;-0.67;72.57;100724.75;5053336;28;45418;-61
2022/12/11 08:33:08;;;;;;;;;51.33;37.67;;;;;-0.58;73.24;100717.47;5039750;28;45345;-62
2022/12/11 08:35:38;;;;;;;;;61.33;41.00;;;;;-0.46;72.17;100712.03;5053908;28;45430;-62
2022/12/11 08:38:03;;;;;;;;;56.00;39.33;;;;;-0.48;71.93;100693.94;5053509;28;45481;-61
2022/12/11 08:40:29;;;;;;;;;54.67;40.00;;;;;-0.35;71.82;100710.81;5057641;28;45318;-63
2022/12/11 08:42:54;;;;;;;;;63.00;44.67;;;;;-0.46;71.51;100705.19;5078394;28;45375;-62
2022/12/11 08:45:20;;;;;;;;;53.67;40.00;;;;;-0.40;71.55;100720.03;5058826;28;45444;-60
2022/12/11 08:47:46;;;;;;;;;54.33;41.67;;;;;-0.44;71.89;100721.56;5073936;27;45849;-61
2022/12/11 08:50:11;;;;;;;;;55.33;38.00;;;;;-0.43;71.13;100723.34;5073993;28;45755;-62
2022/12/11 08:52:36;;;;;;;;;56.67;41.33;;;;;-0.49;71.66;100714.47;5073911;28;45355;-61
2022/12/11 08:55:02;;;;;;;;;56.33;41.00;;;;;-0.51;71.89;100714.38;5074206;28;45537;-62
2022/12/11 08:57:28;;;;;;;;;58.00;41.67;;;;;-0.46;71.82;100705.19;5073972;27;46237;-63
2022/12/11 08:59:54;;;;;;;;;48.00;41.67;;;;;-0.40;70.66;100711.41;5053415;28;45451;-61
2022/12/11 09:02:19;;;;;;;;;54.33;41.67;;;;;-0.35;71.61;100715.09;5054461;28;45481;-61
2022/12/11 09:04:45;;;;;;;;;55.67;42.67;;;;;-0.42;71.47;100698.50;5041990;28;45554;-63
2022/12/11 09:07:11;;;;;;;;;49.67;38.67;;;;;-0.33;71.04;100710.88;5064769;28;45501;-64
2022/12/11 09:09:37;;;;;;;;;57.00;40.67;;;;;-0.41;70.77;100715.69;5057020;28;45398;-62
2022/12/11 09:12:03;;;;;;;;;59.00;41.67;;;;;-0.43;70.36;100712.16;5062922;27;45550;-64
2022/12/11 09:14:29;;;;;;;;;53.67;40.67;;;;;-0.37;70.20;100727.00;5037751;28;45592;-61
2022/12/11 09:16:55;;;;;;;;;51.67;39.00;;;;;-0.41;70.13;100709.66;5052469;28;46497;-60
2022/12/11 09:19:20;;;;;;;;;50.00;40.33;;;;;-0.27;70.79;100719.75;5039013;28;45679;-61
2022/12/11 09:21:46;;;;;;;;;52.00;38.00;;;;;-0.17;69.79;100704.75;5053373;28;45485;-62
2022/12/11 09:24:12;;;;;;;;;57.67;39.67;;;;;-0.10;70.08;100719.66;5056717;28;45382;-62
2022/12/11 09:26:38;;;;;;;;;54.33;40.67;;;;;-0.08;69.92;100707.72;5039968;28;46721;-61
2022/12/11 09:29:05;;;;;;;;;46.00;36.67;;;;;-0.06;69.78;100701.81;5052635;28;45609;-62
2022/12/11 09:31:33;;;;;;;;;47.00;37.00;;;;;0.09;70.35;100723.91;5053227;28;45686;-63
2022/12/11 09:34:05;;;;;;;;;59.00;37.33;;;;;0.14;69.82;100709.53;5036780;28;45765;-62
2022/12/11 09:36:32;;;;;;;;;45.33;33.00;;;;;0.08;69.00;100704.13;5056088;28;45632;-65
2022/12/11 09:39:03;;;;;;;;;52.67;37.67;;;;;0.08;69.58;100701.56;5040810;28;45323;-66
2022/12/11 09:41:35;;;;;;;;;48.67;36.33;;;;;0.20;69.33;100722.69;5065699;28;45485;-64
2022/12/11 09:44:43;;;;;;;;;49.67;38.33;;;;;0.03;69.01;100701.38;5063565;28;45395;-65
2022/12/11 09:47:34;;;;;;;;;50.67;37.33;;;;;0.15;69.07;100719.91;5045522;28;46649;-62
2022/12/11 09:50:08;;;;;;;;;51.33;37.00;;;;;0.17;68.69;100725.16;5053030;28;45622;-67
2022/12/11 09:52:52;;;;;;;;;49.00;35.67;;;;;0.05;68.94;100703.97;5063826;28;45358;-66
2022/12/11 09:55:23;;;;;;;;;50.00;39.33;;;;;0.06;69.18;100737.53;5073762;27;45422;-63
2022/12/11 09:58:13;;;;;;;;;54.00;38.33;;;;;0.02;68.81;100722.75;5055435;28;47090;-62
2022/12/11 10:00:45;;;;;;;;;37.33;35.33;;;;;0.07;69.40;100733.25;5076985;28;45411;-61
2022/12/11 10:03:41;;;;;;;;;53.00;36.67;;;;;-0.01;68.86;100712.34;5077234;28;45390;-61
2022/12/11 10:06:20;;;;;;;;;40.67;34.00;;;;;0.15;69.48;100725.06;5059182;28;45357;-61
2022/12/11 10:09:03;;;;;;;;;44.00;32.67;;;;;0.48;68.28;100727.34;5076857;28;46671;-63
2022/12/11 10:11:48;;;;;;;;;60.00;38.67;;;;;0.53;67.75;100732.69;5062530;28;45492;-61
2022/12/11 10:14:23;;;;;;;;;47.00;36.33;;;;;0.44;67.19;100737.44;5072838;28;45501;-63
2022/12/11 10:16:53;;;;;;;;;55.00;39.33;;;;;0.32;67.37;100723.22;5074486;28;45529;-63
2022/12/11 10:19:23;;;;;;;;;45.00;35.00;;;;;0.25;68.28;100728.94;5076457;28;45529;-63
2022/12/11 10:21:50;;;;;;;;;52.00;37.00;;;;;0.21;67.92;100719.28;5076632;28;45355;-66
2022/12/11 10:24:30;;;;;;;;;49.33;38.00;;;;;0.40;68.10;100723.53;5058219;28;45231;-65
2022/12/11 10:27:00;;;;;;;;;47.00;36.33;;;;;0.72;67.01;100714.59;5076441;28;45492;-63
2022/12/11 10:29:27;;;;;;;;;38.00;32.00;;;;;2.15;65.14;100696.81;5072233;28;45670;-63
2022/12/11 10:31:56;;;;;;;;;40.25;33.25;;;;;2.64;61.18;100708.88;5054824;28;45464;-62
2022/12/11 10:34:33;;;;;;;;;45.50;35.50;;;;;2.55;59.49;100696.50;5054223;28;45774;-63
2022/12/11 10:36:59;;;;;;;;;50.67;36.67;;;;;2.04;60.93;100696.47;5072456;27;45515;-62
2022/12/11 10:39:24;;;;;;;;;51.33;37.67;;;;;1.54;63.25;100689.41;5072747;28;46283;-61
2022/12/11 10:41:52;;;;;;;;;45.25;35.25;;;;;1.29;63.24;100703.97;5055110;28;45513;-61
2022/12/11 10:44:25;;;;;;;;;45.00;32.00;;;;;1.38;64.52;100699.16;5054391;28;45410;-63
2022/12/11 10:47:09;;;;;;;;;49.00;37.25;;;;;1.58;62.97;100696.47;5061393;28;45533;-62
2022/12/11 10:49:37;;;;;;;;;49.00;34.00;;;;;1.44;63.75;100685.63;5052148;28;45785;-62
2022/12/11 10:52:22;;;;;;;;;48.00;35.33;;;;;1.35;63.28;100683.56;5050290;28;45764;-61
2022/12/11 10:55:03;;;;;;;;;48.50;35.50;;;;;1.34;63.77;100691.25;5055065;28;45721;-60
2022/12/11 10:57:38;;;;;;;;;53.33;38.33;;;;;1.40;63.89;100697.53;5068204;28;45436;-62
2022/12/11 11:00:25;;;;;;;;;42.50;33.25;;;;;1.38;63.51;100698.31;5057762;28;45427;-63
2022/12/11 11:02:51;;;;;;;;;42.50;33.25;;;;;3.81;59.92;100674.50;5058750;28;45502;-61
2022/12/11 11:05:33;;;;;;;;;44.00;32.25;;;;;3.58;56.25;100670.38;5055046;28;45636;-61
2022/12/11 11:08:20;;;;;;;;;42.00;32.25;;;;;3.22;57.51;100646.88;5055435;28;45776;-61
2022/12/11 11:10:53;;;;;;;;;40.50;32.50;;;;;5.71;54.11;100660.09;5055040;28;46536;-62
2022/12/11 11:13:22;;;;;;;;;36.75;31.50;;;;;5.58;51.80;100652.06;5056634;28;45484;-62
2022/12/11 11:15:48;;;;;;;;;38.25;31.50;;;;;4.82;53.34;100644.28;5058272;28;45490;-62
2022/12/11 11:18:25;;;;;;;;;33.50;29.50;;;;;4.36;54.91;100646.59;5056393;28;45533;-64
2022/12/11 11:20:51;;;;;;;;;40.75;34.25;;;;;3.64;55.04;100649.84;5054604;28;46209;-61
2022/12/11 11:23:20;;;;;;;;;37.00;32.50;;;;;3.21;56.90;100655.47;5059363;28;45466;-62
2022/12/11 11:26:07;;;;;;;;;39.00;30.75;;;;;2.95;57.40;100660.72;5059437;28;45438;-64
2022/12/11 11:28:37;;;;;;;;;43.00;35.25;;;;;2.89;56.94;100663.09;5059115;28;45434;-61
2022/12/11 11:31:12;;;;;;;;;48.50;36.50;;;;;2.91;57.20;100653.69;5058466;28;46442;-64
2022/12/11 11:33:55;;;;;;;;;42.75;32.00;;;;;2.74;57.20;100651.44;5059091;28;45423;-61